sensor_id;sensor_type;location;lat;lon;timestamp;temperature;humidity
12688;DHT22;6408;59.388;17.798;2022-12-10T00:01:09;-3.60;99.90
12688;DHT22;6408;59.388;17.798;2022-12-10T00:03:37;-3.60;99.90
12688;DHT22;6408;59.388;17.798;2022-12-10T00:06:09;-3.60;99.90
12688;DHT22;6408;59.388;17.798;2022-12-10T00:08:37;-3.60;99.90
12688;DHT22;6408;59.388;17.798;2022-12-10T00:11:08;-3.50;99.90
12688;DHT22;6408;59.388;17.798;2022-12-10T00:13:37;-3.60;99.90
12688;DHT22;6408;59.388;17.798;2022-12-10T00:16:07;-3.60;99.90
12688;DHT22;6408;59.388;17.798;2022-12-10T00:18:35;-3.50;99.90
12688;DHT22;6408;59.388;17.798;2022-12-10T00:21:02;-3.40;99.90
12688;DHT22;6408;59.388;17.798;2022-12-10T00:23:32;-3.40;99.90
12688;DHT22;6408;59.388;17.798;2022-12-10T00:26:02;-3.50;99.90
12688;DHT22;6408;59.388;17.798;2022-12-10T00:28:30;-3.50;99.90
12688;DHT22;6408;59.388;17.798;2022-12-10T00:31:02;-3.50;99.90
12688;DHT22;6408;59.388;17.798;2022-12-10T00:33:29;-3.30;99.90
12688;DHT22;6408;59.388;17.798;2022-12-10T00:36:01;-3.30;99.90
12688;DHT22;6408;59.388;17.798;2022-12-10T00:38:28;-3.30;99.90
12688;DHT22;6408;59.388;17.798;2022-12-10T00:40:57;-3.40;99.90
12688;DHT22;6408;59.388;17.798;2022-12-10T00:43:25;-3.30;99.90
12688;DHT22;6408;59.388;17.798;2022-12-10T00:45:54;-3.30;99.90
12688;DHT22;6408;59.388;17.798;2022-12-10T00:48:21;-3.20;99.90
12688;DHT22;6408;59.388;17.798;2022-12-10T00:50:55;-3.20;99.90
12688;DHT22;6408;59.388;17.798;2022-12-10T00:53:23;-3.20;99.90
12688;DHT22;6408;59.388;17.798;2022-12-10T00:55:51;-3.20;99.90
12688;DHT22;6408;59.388;17.798;2022-12-10T00:58:19;-3.30;99.90
12688;DHT22;6408;59.388;17.798;2022-12-10T01:00:47;-3.30;99.90
12688;DHT22;6408;59.388;17.798;2022-12-10T01:03:15;-3.30;99.90
12688;DHT22;6408;59.388;17.798;2022-12-10T01:05:42;-3.30;99.90
12688;DHT22;6408;59.388;17.798;2022-12-10T01:08:10;-3.30;99.90
12688;DHT22;6408;59.388;17.798;2022-12-10T01:10:37;-3.30;99.90
12688;DHT22;6408;59.388;17.798;2022-12-10T01:13:04;-3.20;99.90
12688;DHT22;6408;59.388;17.798;2022-12-10T01:15:37;-3.20;99.90
12688;DHT22;6408;59.388;17.798;2022-12-10T01:18:05;-3.20;99.90
12688;DHT22;6408;59.388;17.798;2022-12-10T01:20:35;-3.20;99.90
12688;DHT22;6408;59.388;17.798;2022-12-10T01:23:03;-3.20;99.90
12688;DHT22;6408;59.388;17.798;2022-12-10T01:25:30;-3.20;99.90
12688;DHT22;6408;59.388;17.798;2022-12-10T01:27:57;-3.10;99.90
12688;DHT22;6408;59.388;17.798;2022-12-10T01:30:25;-3.10;99.90
12688;DHT22;6408;59.388;17.798;2022-12-10T01:32:54;-3.10;99.90
12688;DHT22;6408;59.388;17.798;2022-12-10T01:35:21;-3.10;99.90
12688;DHT22;6408;59.388;17.798;2022-12-10T01:37:48;-3.10;99.90
12688;DHT22;6408;59.388;17.798;2022-12-10T01:40:16;-3.10;99.90
12688;DHT22;6408;59.388;17.798;2022-12-10T01:42:44;-3.10;99.90
12688;DHT22;6408;59.388;17.798;2022-12-10T01:45:12;-3.10;99.90
12688;DHT22;6408;59.388;17.798;2022-12-10T01:47:40;-3.10;99.90
12688;DHT22;6408;59.388;17.798;2022-12-10T01:50:09;-3.10;99.90
12688;DHT22;6408;59.388;17.798;2022-12-10T01:52:37;-3.10;99.90
12688;DHT22;6408;59.388;17.798;2022-12-10T01:55:34;-3.10;99.90
12688;DHT22;6408;59.388;17.798;2022-12-10T01:57:56;-3.00;99.90
12688;DHT22;6408;59.388;17.798;2022-12-10T02:00:23;-3.00;99.90
12688;DHT22;6408;59.388;17.798;2022-12-10T02:02:57;-3.00;99.90
12688;DHT22;6408;59.388;17.798;2022-12-10T02:05:32;-3.00;99.90
12688;DHT22;6408;59.388;17.798;2022-12-10T02:08:07;-3.00;99.90
12688;DHT22;6408;59.388;17.798;2022-12-10T02:10:55;-3.00;99.90
12688;DHT22;6408;59.388;17.798;2022-12-10T02:13:28;-3.00;99.90
12688;DHT22;6408;59.388;17.798;2022-12-10T02:16:01;-3.00;99.90
12688;DHT22;6408;59.388;17.798;2022-12-10T02:18:33;-3.00;99.90
12688;DHT22;6408;59.388;17.798;2022-12-10T02:21:08;-3.00;99.90
12688;DHT22;6408;59.388;17.798;2022-12-10T02:23:41;-3.00;99.90
12688;DHT22;6408;59.388;17.798;2022-12-10T02:26:15;-3.10;99.90
12688;DHT22;6408;59.388;17.798;2022-12-10T02:28:47;-3.10;99.90
12688;DHT22;6408;59.388;17.798;2022-12-10T02:31:22;-3.00;99.90
12688;DHT22;6408;59.388;17.798;2022-12-10T02:33:54;-3.00;99.90
12688;DHT22;6408;59.388;17.798;2022-12-10T02:36:25;-3.00;99.90
12688;DHT22;6408;59.388;17.798;2022-12-10T02:38:56;-3.00;99.90
12688;DHT22;6408;59.388;17.798;2022-12-10T02:41:29;-3.00;99.90
12688;DHT22;6408;59.388;17.798;2022-12-10T02:43:59;-2.90;99.90
12688;DHT22;6408;59.388;17.798;2022-12-10T02:46:29;-2.90;99.90
12688;DHT22;6408;59.388;17.798;2022-12-10T02:48:58;-2.90;99.90
12688;DHT22;6408;59.388;17.798;2022-12-10T02:51:26;-2.90;99.90
12688;DHT22;6408;59.388;17.798;2022-12-10T02:54:00;-2.80;99.90
12688;DHT22;6408;59.388;17.798;2022-12-10T02:56:33;-2.90;99.90
12688;DHT22;6408;59.388;17.798;2022-12-10T02:59:09;-2.80;99.90
12688;DHT22;6408;59.388;17.798;2022-12-10T03:01:48;-2.90;99.90
12688;DHT22;6408;59.388;17.798;2022-12-10T03:04:25;-2.90;99.90
12688;DHT22;6408;59.388;17.798;2022-12-10T03:06:59;-2.80;99.90
12688;DHT22;6408;59.388;17.798;2022-12-10T03:09:32;-2.80;99.90
12688;DHT22;6408;59.388;17.798;2022-12-10T03:12:07;-2.80;99.90
12688;DHT22;6408;59.388;17.798;2022-12-10T03:14:36;-2.80;99.90
12688;DHT22;6408;59.388;17.798;2022-12-10T03:17:06;-2.80;99.90
12688;DHT22;6408;59.388;17.798;2022-12-10T03:19:37;-2.80;99.90
12688;DHT22;6408;59.388;17.798;2022-12-10T03:22:07;-2.80;99.90
12688;DHT22;6408;59.388;17.798;2022-12-10T03:24:35;-2.80;99.90
12688;DHT22;6408;59.388;17.798;2022-12-10T03:27:04;-2.80;99.90
12688;DHT22;6408;59.388;17.798;2022-12-10T03:29:35;-2.80;99.90
12688;DHT22;6408;59.388;17.798;2022-12-10T03:32:05;-2.80;99.90
12688;DHT22;6408;59.388;17.798;2022-12-10T03:34:33;-2.80;99.90
12688;DHT22;6408;59.388;17.798;2022-12-10T03:37:02;-2.80;99.90
12688;DHT22;6408;59.388;17.798;2022-12-10T03:39:30;-2.70;99.90
12688;DHT22;6408;59.388;17.798;2022-12-10T03:41:58;-2.70;99.90
12688;DHT22;6408;59.388;17.798;2022-12-10T03:44:29;-2.70;99.90
12688;DHT22;6408;59.388;17.798;2022-12-10T03:46:57;-2.60;99.90
12688;DHT22;6408;59.388;17.798;2022-12-10T03:49:26;-2.60;99.90
12688;DHT22;6408;59.388;17.798;2022-12-10T03:51:53;-2.70;99.90
12688;DHT22;6408;59.388;17.798;2022-12-10T03:54:20;-2.70;99.90
12688;DHT22;6408;59.388;17.798;2022-12-10T03:56:48;-2.70;99.90
12688;DHT22;6408;59.388;17.798;2022-12-10T03:59:15;-2.60;99.90
12688;DHT22;6408;59.388;17.798;2022-12-10T04:01:43;-2.60;99.90
12688;DHT22;6408;59.388;17.798;2022-12-10T04:04:10;-2.60;99.90
12688;DHT22;6408;59.388;17.798;2022-12-10T04:06:41;-2.60;99.90
12688;DHT22;6408;59.388;17.798;2022-12-10T04:09:10;-2.60;99.90
12688;DHT22;6408;59.388;17.798;2022-12-10T04:11:38;-2.60;99.90
12688;DHT22;6408;59.388;17.798;2022-12-10T04:14:07;-2.50;99.90
12688;DHT22;6408;59.388;17.798;2022-12-10T04:16:52;-2.60;99.90
12688;DHT22;6408;59.388;17.798;2022-12-10T04:19:19;-2.70;99.90
12688;DHT22;6408;59.388;17.798;2022-12-10T04:21:48;-2.80;99.90
12688;DHT22;6408;59.388;17.798;2022-12-10T04:24:34;-2.70;99.90
12688;DHT22;6408;59.388;17.798;2022-12-10T04:27:21;-2.80;99.90
12688;DHT22;6408;59.388;17.798;2022-12-10T04:29:49;-2.80;99.90
12688;DHT22;6408;59.388;17.798;2022-12-10T04:32:16;-2.80;99.90
12688;DHT22;6408;59.388;17.798;2022-12-10T04:34:44;-2.80;99.90
12688;DHT22;6408;59.388;17.798;2022-12-10T04:37:14;-2.80;99.90
12688;DHT22;6408;59.388;17.798;2022-12-10T04:39:41;-2.80;99.90
12688;DHT22;6408;59.388;17.798;2022-12-10T04:42:08;-2.80;99.90
12688;DHT22;6408;59.388;17.798;2022-12-10T04:44:36;-2.80;99.90
12688;DHT22;6408;59.388;17.798;2022-12-10T04:47:05;-2.90;99.90
12688;DHT22;6408;59.388;17.798;2022-12-10T04:49:32;-2.90;99.90
12688;DHT22;6408;59.388;17.798;2022-12-10T04:51:59;-2.90;99.90
12688;DHT22;6408;59.388;17.798;2022-12-10T04:54:29;-2.90;99.90
12688;DHT22;6408;59.388;17.798;2022-12-10T04:56:56;-2.80;99.90
12688;DHT22;6408;59.388;17.798;2022-12-10T04:59:24;-2.80;99.90
12688;DHT22;6408;59.388;17.798;2022-12-10T05:01:51;-2.80;99.90
12688;DHT22;6408;59.388;17.798;2022-12-10T05:04:18;-2.80;99.90
12688;DHT22;6408;59.388;17.798;2022-12-10T05:06:48;-2.90;99.90
12688;DHT22;6408;59.388;17.798;2022-12-10T05:09:16;-2.90;99.90
12688;DHT22;6408;59.388;17.798;2022-12-10T05:11:45;-2.90;99.90
12688;DHT22;6408;59.388;17.798;2022-12-10T05:14:13;-2.90;99.90
12688;DHT22;6408;59.388;17.798;2022-12-10T05:16:41;-2.90;99.90
12688;DHT22;6408;59.388;17.798;2022-12-10T05:19:10;-2.90;99.90
12688;DHT22;6408;59.388;17.798;2022-12-10T05:21:38;-2.90;99.90
12688;DHT22;6408;59.388;17.798;2022-12-10T05:24:23;-2.90;99.90
12688;DHT22;6408;59.388;17.798;2022-12-10T05:26:53;-2.90;99.90
12688;DHT22;6408;59.388;17.798;2022-12-10T05:29:35;-2.90;99.90
12688;DHT22;6408;59.388;17.798;2022-12-10T05:32:03;-2.90;99.90
12688;DHT22;6408;59.388;17.798;2022-12-10T05:34:31;-2.90;99.90
12688;DHT22;6408;59.388;17.798;2022-12-10T05:36:58;-2.90;99.90
12688;DHT22;6408;59.388;17.798;2022-12-10T05:39:25;-2.90;99.90
12688;DHT22;6408;59.388;17.798;2022-12-10T05:41:54;-2.90;99.90
12688;DHT22;6408;59.388;17.798;2022-12-10T05:44:22;-2.90;99.90
12688;DHT22;6408;59.388;17.798;2022-12-10T05:46:49;-2.90;99.90
12688;DHT22;6408;59.388;17.798;2022-12-10T05:49:16;-3.00;99.90
12688;DHT22;6408;59.388;17.798;2022-12-10T05:51:43;-2.90;99.90
12688;DHT22;6408;59.388;17.798;2022-12-10T05:54:11;-2.90;99.90
12688;DHT22;6408;59.388;17.798;2022-12-10T05:56:38;-2.90;99.90
12688;DHT22;6408;59.388;17.798;2022-12-10T05:59:09;-2.80;99.90
12688;DHT22;6408;59.388;17.798;2022-12-10T06:01:36;-2.80;99.90
12688;DHT22;6408;59.388;17.798;2022-12-10T06:04:04;-2.80;99.90
12688;DHT22;6408;59.388;17.798;2022-12-10T06:06:33;-2.90;99.90
12688;DHT22;6408;59.388;17.798;2022-12-10T06:09:01;-2.80;99.90
12688;DHT22;6408;59.388;17.798;2022-12-10T06:11:28;-2.80;99.90
12688;DHT22;6408;59.388;17.798;2022-12-10T06:13:57;-2.80;99.90
12688;DHT22;6408;59.388;17.798;2022-12-10T06:16:27;-2.80;99.90
12688;DHT22;6408;59.388;17.798;2022-12-10T06:18:56;-2.80;99.90
12688;DHT22;6408;59.388;17.798;2022-12-10T06:21:23;-2.80;99.90
12688;DHT22;6408;59.388;17.798;2022-12-10T06:23:51;-2.70;99.90
12688;DHT22;6408;59.388;17.798;2022-12-10T06:26:21;-2.80;99.90
12688;DHT22;6408;59.388;17.798;2022-12-10T06:28:49;-2.80;99.90
12688;DHT22;6408;59.388;17.798;2022-12-10T06:31:17;-2.80;99.90
12688;DHT22;6408;59.388;17.798;2022-12-10T06:33:47;-2.80;99.90
12688;DHT22;6408;59.388;17.798;2022-12-10T06:39:05;-2.80;99.90
12688;DHT22;6408;59.388;17.798;2022-12-10T06:41:32;-2.80;99.90
12688;DHT22;6408;59.388;17.798;2022-12-10T06:43:59;-2.80;99.90
12688;DHT22;6408;59.388;17.798;2022-12-10T06:46:27;-2.80;99.90
12688;DHT22;6408;59.388;17.798;2022-12-10T06:48:56;-2.90;99.90
12688;DHT22;6408;59.388;17.798;2022-12-10T06:51:23;-2.80;99.90
12688;DHT22;6408;59.388;17.798;2022-12-10T06:53:50;-2.80;99.90
12688;DHT22;6408;59.388;17.798;2022-12-10T06:56:22;-2.80;99.90
12688;DHT22;6408;59.388;17.798;2022-12-10T06:58:49;-2.80;99.90
12688;DHT22;6408;59.388;17.798;2022-12-10T07:01:19;-2.80;99.90
12688;DHT22;6408;59.388;17.798;2022-12-10T07:03:48;-2.90;99.90
12688;DHT22;6408;59.388;17.798;2022-12-10T07:06:17;-2.90;99.90
12688;DHT22;6408;59.388;17.798;2022-12-10T07:08:45;-2.90;99.90
12688;DHT22;6408;59.388;17.798;2022-12-10T07:11:14;-2.90;99.90
12688;DHT22;6408;59.388;17.798;2022-12-10T07:13:42;-2.90;99.90
12688;DHT22;6408;59.388;17.798;2022-12-10T07:16:13;-3.00;99.90
12688;DHT22;6408;59.388;17.798;2022-12-10T07:18:41;-2.90;99.90
12688;DHT22;6408;59.388;17.798;2022-12-10T07:21:15;-2.90;99.90
12688;DHT22;6408;59.388;17.798;2022-12-10T07:23:44;-2.90;99.90
12688;DHT22;6408;59.388;17.798;2022-12-10T07:26:11;-2.90;99.90
12688;DHT22;6408;59.388;17.798;2022-12-10T07:28:39;-2.80;99.90
12688;DHT22;6408;59.388;17.798;2022-12-10T07:31:08;-2.80;99.90
12688;DHT22;6408;59.388;17.798;2022-12-10T07:33:36;-2.90;99.90
12688;DHT22;6408;59.388;17.798;2022-12-10T07:36:06;-2.80;99.90
12688;DHT22;6408;59.388;17.798;2022-12-10T07:38:33;-2.90;99.90
12688;DHT22;6408;59.388;17.798;2022-12-10T07:41:04;-2.90;99.90
12688;DHT22;6408;59.388;17.798;2022-12-10T07:43:33;-2.80;99.90
12688;DHT22;6408;59.388;17.798;2022-12-10T07:46:03;-2.80;99.90
12688;DHT22;6408;59.388;17.798;2022-12-10T07:48:31;-2.80;99.90
12688;DHT22;6408;59.388;17.798;2022-12-10T07:50:58;-2.80;99.90
12688;DHT22;6408;59.388;17.798;2022-12-10T07:53:26;-2.70;99.90
12688;DHT22;6408;59.388;17.798;2022-12-10T07:56:12;-2.70;99.90
12688;DHT22;6408;59.388;17.798;2022-12-10T07:58:42;-2.80;99.90
12688;DHT22;6408;59.388;17.798;2022-12-10T08:01:12;-2.80;99.90
12688;DHT22;6408;59.388;17.798;2022-12-10T08:03:40;-2.70;99.90
12688;DHT22;6408;59.388;17.798;2022-12-10T08:06:10;-2.70;99.90
12688;DHT22;6408;59.388;17.798;2022-12-10T08:08:40;-2.70;99.90
12688;DHT22;6408;59.388;17.798;2022-12-10T08:11:08;-2.60;99.90
12688;DHT22;6408;59.388;17.798;2022-12-10T08:13:40;-2.60;99.90
12688;DHT22;6408;59.388;17.798;2022-12-10T08:16:11;-2.50;99.90
12688;DHT22;6408;59.388;17.798;2022-12-10T08:18:51;-2.50;99.90
12688;DHT22;6408;59.388;17.798;2022-12-10T08:21:27;-2.60;99.90
12688;DHT22;6408;59.388;17.798;2022-12-10T08:24:03;-2.50;99.90
12688;DHT22;6408;59.388;17.798;2022-12-10T08:26:36;-2.60;99.90
12688;DHT22;6408;59.388;17.798;2022-12-10T08:29:32;-2.50;99.90
12688;DHT22;6408;59.388;17.798;2022-12-10T08:32:15;-2.60;99.90
12688;DHT22;6408;59.388;17.798;2022-12-10T08:34:46;-2.60;99.90
12688;DHT22;6408;59.388;17.798;2022-12-10T08:37:26;-2.60;99.90
12688;DHT22;6408;59.388;17.798;2022-12-10T08:40:21;-2.50;99.90
12688;DHT22;6408;59.388;17.798;2022-12-10T08:42:58;-2.60;99.90
12688;DHT22;6408;59.388;17.798;2022-12-10T08:45:40;-2.50;99.90
12688;DHT22;6408;59.388;17.798;2022-12-10T08:49:07;-2.50;99.90
12688;DHT22;6408;59.388;17.798;2022-12-10T08:52:06;-2.60;99.90
12688;DHT22;6408;59.388;17.798;2022-12-10T08:54:59;-2.60;99.90
12688;DHT22;6408;59.388;17.798;2022-12-10T08:57:29;-2.60;99.90
12688;DHT22;6408;59.388;17.798;2022-12-10T09:00:00;-2.60;99.90
12688;DHT22;6408;59.388;17.798;2022-12-10T09:02:49;-2.60;99.90
12688;DHT22;6408;59.388;17.798;2022-12-10T09:05:17;-2.60;99.90
12688;DHT22;6408;59.388;17.798;2022-12-10T09:07:53;-2.60;99.90
12688;DHT22;6408;59.388;17.798;2022-12-10T09:10:44;-2.50;99.90
12688;DHT22;6408;59.388;17.798;2022-12-10T09:13:15;-2.50;99.90
12688;DHT22;6408;59.388;17.798;2022-12-10T09:15:49;-2.50;99.90
12688;DHT22;6408;59.388;17.798;2022-12-10T09:18:21;-2.50;99.90
12688;DHT22;6408;59.388;17.798;2022-12-10T09:20:49;-2.50;99.90
12688;DHT22;6408;59.388;17.798;2022-12-10T09:23:17;-2.40;99.90
12688;DHT22;6408;59.388;17.798;2022-12-10T09:25:45;-2.40;99.90
12688;DHT22;6408;59.388;17.798;2022-12-10T09:28:13;-2.20;99.90
12688;DHT22;6408;59.388;17.798;2022-12-10T09:30:55;-2.20;99.90
12688;DHT22;6408;59.388;17.798;2022-12-10T09:33:41;-2.30;99.90
12688;DHT22;6408;59.388;17.798;2022-12-10T09:36:15;-2.30;99.90
12688;DHT22;6408;59.388;17.798;2022-12-10T09:38:49;-2.20;99.90
12688;DHT22;6408;59.388;17.798;2022-12-10T09:41:45;-2.20;99.90
12688;DHT22;6408;59.388;17.798;2022-12-10T09:44:38;-2.20;99.90
12688;DHT22;6408;59.388;17.798;2022-12-10T09:47:14;-2.30;99.90
12688;DHT22;6408;59.388;17.798;2022-12-10T09:53:13;-2.40;99.90
12688;DHT22;6408;59.388;17.798;2022-12-10T09:55:46;-2.30;99.90
12688;DHT22;6408;59.388;17.798;2022-12-10T09:58:17;-2.30;99.90
12688;DHT22;6408;59.388;17.798;2022-12-10T10:00:56;-2.30;99.90
12688;DHT22;6408;59.388;17.798;2022-12-10T10:03:32;-2.30;99.90
12688;DHT22;6408;59.388;17.798;2022-12-10T10:06:03;-2.40;99.90
12688;DHT22;6408;59.388;17.798;2022-12-10T10:08:37;-2.40;99.90
12688;DHT22;6408;59.388;17.798;2022-12-10T10:11:17;-2.40;99.90
12688;DHT22;6408;59.388;17.798;2022-12-10T10:13:47;-2.40;99.90
12688;DHT22;6408;59.388;17.798;2022-12-10T10:16:31;-2.40;99.90
12688;DHT22;6408;59.388;17.798;2022-12-10T10:19:02;-2.30;99.90
12688;DHT22;6408;59.388;17.798;2022-12-10T10:21:35;-2.30;99.90
12688;DHT22;6408;59.388;17.798;2022-12-10T10:24:09;-2.30;99.90
12688;DHT22;6408;59.388;17.798;2022-12-10T10:26:42;-2.20;99.90
12688;DHT22;6408;59.388;17.798;2022-12-10T10:29:17;-2.20;99.90
12688;DHT22;6408;59.388;17.798;2022-12-10T10:32:18;-2.20;99.90
12688;DHT22;6408;59.388;17.798;2022-12-10T10:34:54;-2.10;99.90
12688;DHT22;6408;59.388;17.798;2022-12-10T10:37:42;-2.10;99.90
12688;DHT22;6408;59.388;17.798;2022-12-10T10:40:25;-2.10;99.90
12688;DHT22;6408;59.388;17.798;2022-12-10T10:43:14;-2.00;99.90
12688;DHT22;6408;59.388;17.798;2022-12-10T10:46:01;-2.00;99.90
12688;DHT22;6408;59.388;17.798;2022-12-10T10:48:34;-1.90;99.90
12688;DHT22;6408;59.388;17.798;2022-12-10T10:51:07;-1.90;99.90
12688;DHT22;6408;59.388;17.798;2022-12-10T10:53:46;-1.90;99.90
12688;DHT22;6408;59.388;17.798;2022-12-10T10:56:23;-1.90;99.90
12688;DHT22;6408;59.388;17.798;2022-12-10T10:58:56;-1.90;99.90
12688;DHT22;6408;59.388;17.798;2022-12-10T11:01:42;-1.90;99.90
12688;DHT22;6408;59.388;17.798;2022-12-10T11:04:11;-1.90;99.90
12688;DHT22;6408;59.388;17.798;2022-12-10T11:06:44;-1.90;99.90
12688;DHT22;6408;59.388;17.798;2022-12-10T11:09:19;-2.00;99.90
12688;DHT22;6408;59.388;17.798;2022-12-10T11:12:00;-2.00;99.90
12688;DHT22;6408;59.388;17.798;2022-12-10T11:14:47;-2.10;99.90
12688;DHT22;6408;59.388;17.798;2022-12-10T11:17:26;-2.10;99.90
12688;DHT22;6408;59.388;17.798;2022-12-10T11:19:57;-2.10;99.90
12688;DHT22;6408;59.388;17.798;2022-12-10T11:22:27;-2.20;99.90
12688;DHT22;6408;59.388;17.798;2022-12-10T11:25:19;-2.30;99.90
12688;DHT22;6408;59.388;17.798;2022-12-10T11:28:10;-2.20;99.90
12688;DHT22;6408;59.388;17.798;2022-12-10T11:30:59;-2.20;99.90
12688;DHT22;6408;59.388;17.798;2022-12-10T11:33:41;-2.30;99.90
12688;DHT22;6408;59.388;17.798;2022-12-10T11:36:24;-2.20;99.90
12688;DHT22;6408;59.388;17.798;2022-12-10T11:39:01;-2.20;99.90
12688;DHT22;6408;59.388;17.798;2022-12-10T11:41:45;-2.10;99.90
12688;DHT22;6408;59.388;17.798;2022-12-10T11:44:47;-2.10;99.90
12688;DHT22;6408;59.388;17.798;2022-12-10T11:47:33;-2.20;99.90
12688;DHT22;6408;59.388;17.798;2022-12-10T11:50:23;-2.10;99.90
12688;DHT22;6408;59.388;17.798;2022-12-10T11:53:12;-2.10;99.90
12688;DHT22;6408;59.388;17.798;2022-12-10T11:55:53;-2.00;99.90
12688;DHT22;6408;59.388;17.798;2022-12-10T12:01:35;-2.00;99.90
12688;DHT22;6408;59.388;17.798;2022-12-10T12:04:28;-2.00;99.90
12688;DHT22;6408;59.388;17.798;2022-12-10T12:07:17;-1.90;99.90
12688;DHT22;6408;59.388;17.798;2022-12-10T12:10:02;-1.90;99.90
12688;DHT22;6408;59.388;17.798;2022-12-10T12:12:40;-2.00;99.90
12688;DHT22;6408;59.388;17.798;2022-12-10T12:15:52;-1.90;99.90
12688;DHT22;6408;59.388;17.798;2022-12-10T12:18:30;-1.80;99.90
12688;DHT22;6408;59.388;17.798;2022-12-10T12:21:12;-1.90;99.90
12688;DHT22;6408;59.388;17.798;2022-12-10T12:23:54;-1.80;99.90
12688;DHT22;6408;59.388;17.798;2022-12-10T12:26:49;-1.70;99.90
12688;DHT22;6408;59.388;17.798;2022-12-10T12:32:13;-1.90;99.90
12688;DHT22;6408;59.388;17.798;2022-12-10T12:34:52;-1.80;99.90
12688;DHT22;6408;59.388;17.798;2022-12-10T12:37:32;-1.80;99.90
12688;DHT22;6408;59.388;17.798;2022-12-10T12:40:09;-1.90;99.90
12688;DHT22;6408;59.388;17.798;2022-12-10T12:42:50;-1.80;99.90
12688;DHT22;6408;59.388;17.798;2022-12-10T12:45:31;-1.80;99.90
12688;DHT22;6408;59.388;17.798;2022-12-10T12:48:24;-1.90;99.90
12688;DHT22;6408;59.388;17.798;2022-12-10T12:51:03;-1.90;99.90
12688;DHT22;6408;59.388;17.798;2022-12-10T12:53:37;-1.90;99.90
12688;DHT22;6408;59.388;17.798;2022-12-10T12:56:09;-1.90;99.90
12688;DHT22;6408;59.388;17.798;2022-12-10T12:58:48;-1.90;99.90
12688;DHT22;6408;59.388;17.798;2022-12-10T13:01:25;-1.90;99.90
12688;DHT22;6408;59.388;17.798;2022-12-10T13:04:02;-1.90;99.90
12688;DHT22;6408;59.388;17.798;2022-12-10T13:06:41;-1.90;99.90
12688;DHT22;6408;59.388;17.798;2022-12-10T13:09:28;-1.90;99.90
12688;DHT22;6408;59.388;17.798;2022-12-10T13:12:28;-2.00;99.90
12688;DHT22;6408;59.388;17.798;2022-12-10T13:15:13;-2.00;99.90
12688;DHT22;6408;59.388;17.798;2022-12-10T13:27:05;-2.10;99.90
12688;DHT22;6408;59.388;17.798;2022-12-10T13:29:46;-2.20;99.90
12688;DHT22;6408;59.388;17.798;2022-12-10T13:32:45;-2.10;99.90
12688;DHT22;6408;59.388;17.798;2022-12-10T13:35:55;-2.10;99.90
12688;DHT22;6408;59.388;17.798;2022-12-10T13:38:26;-2.20;99.90
12688;DHT22;6408;59.388;17.798;2022-12-10T13:41:07;-2.20;99.90
12688;DHT22;6408;59.388;17.798;2022-12-10T13:46:59;-2.30;99.90
12688;DHT22;6408;59.388;17.798;2022-12-10T13:49:30;-2.30;99.90
12688;DHT22;6408;59.388;17.798;2022-12-10T13:55:17;-2.30;99.90
12688;DHT22;6408;59.388;17.798;2022-12-10T13:58:23;-2.30;99.90
12688;DHT22;6408;59.388;17.798;2022-12-10T14:01:03;-2.30;99.90
12688;DHT22;6408;59.388;17.798;2022-12-10T14:04:13;-2.40;99.90
12688;DHT22;6408;59.388;17.798;2022-12-10T14:07:24;-2.40;99.90
12688;DHT22;6408;59.388;17.798;2022-12-10T14:10:26;-2.40;99.90
12688;DHT22;6408;59.388;17.798;2022-12-10T14:13:05;-2.40;99.90
12688;DHT22;6408;59.388;17.798;2022-12-10T14:15:47;-2.50;99.90
12688;DHT22;6408;59.388;17.798;2022-12-10T14:18:56;-2.50;99.90
12688;DHT22;6408;59.388;17.798;2022-12-10T14:21:36;-2.50;99.90
12688;DHT22;6408;59.388;17.798;2022-12-10T14:24:26;-2.50;99.90
12688;DHT22;6408;59.388;17.798;2022-12-10T14:27:30;-2.50;99.90
12688;DHT22;6408;59.388;17.798;2022-12-10T14:30:17;-2.50;99.90
12688;DHT22;6408;59.388;17.798;2022-12-10T14:32:58;-2.50;99.90
12688;DHT22;6408;59.388;17.798;2022-12-10T14:35:42;-2.50;99.90
12688;DHT22;6408;59.388;17.798;2022-12-10T14:38:37;-2.50;99.90
12688;DHT22;6408;59.388;17.798;2022-12-10T14:41:39;-2.50;99.90
12688;DHT22;6408;59.388;17.798;2022-12-10T14:44:49;-2.50;99.90
12688;DHT22;6408;59.388;17.798;2022-12-10T14:47:25;-2.50;99.90
12688;DHT22;6408;59.388;17.798;2022-12-10T14:50:11;-2.50;99.90
12688;DHT22;6408;59.388;17.798;2022-12-10T14:55:39;-2.50;99.90
12688;DHT22;6408;59.388;17.798;2022-12-10T14:58:13;-2.40;99.90
12688;DHT22;6408;59.388;17.798;2022-12-10T15:01:05;-2.40;99.90
12688;DHT22;6408;59.388;17.798;2022-12-10T15:04:15;-2.50;99.90
12688;DHT22;6408;59.388;17.798;2022-12-10T15:07:31;-2.40;99.90
12688;DHT22;6408;59.388;17.798;2022-12-10T15:10:17;-2.50;99.90
12688;DHT22;6408;59.388;17.798;2022-12-10T15:13:38;-2.50;99.90
12688;DHT22;6408;59.388;17.798;2022-12-10T15:16:38;-2.50;99.90
12688;DHT22;6408;59.388;17.798;2022-12-10T15:19:21;-2.50;99.90
12688;DHT22;6408;59.388;17.798;2022-12-10T15:21:56;-2.50;99.90
12688;DHT22;6408;59.388;17.798;2022-12-10T15:24:27;-2.50;99.90
12688;DHT22;6408;59.388;17.798;2022-12-10T15:26:55;-2.60;99.90
12688;DHT22;6408;59.388;17.798;2022-12-10T15:29:35;-2.50;99.90
12688;DHT22;6408;59.388;17.798;2022-12-10T15:32:14;-2.60;99.90
12688;DHT22;6408;59.388;17.798;2022-12-10T15:34:45;-2.60;99.90
12688;DHT22;6408;59.388;17.798;2022-12-10T15:37:35;-2.60;99.90
12688;DHT22;6408;59.388;17.798;2022-12-10T15:40:23;-2.60;99.90
12688;DHT22;6408;59.388;17.798;2022-12-10T15:42:55;-2.60;99.90
12688;DHT22;6408;59.388;17.798;2022-12-10T15:45:39;-2.70;99.90
12688;DHT22;6408;59.388;17.798;2022-12-10T15:48:09;-2.70;99.90
12688;DHT22;6408;59.388;17.798;2022-12-10T15:50:43;-2.70;99.90
12688;DHT22;6408;59.388;17.798;2022-12-10T15:53:22;-2.70;99.90
12688;DHT22;6408;59.388;17.798;2022-12-10T15:55:56;-2.70;99.90
12688;DHT22;6408;59.388;17.798;2022-12-10T15:58:26;-2.60;99.90
12688;DHT22;6408;59.388;17.798;2022-12-10T16:00:56;-2.60;99.90
12688;DHT22;6408;59.388;17.798;2022-12-10T16:03:43;-2.60;99.90
12688;DHT22;6408;59.388;17.798;2022-12-10T16:06:16;-2.70;99.90
12688;DHT22;6408;59.388;17.798;2022-12-10T16:09:17;-2.60;99.90
12688;DHT22;6408;59.388;17.798;2022-12-10T16:11:59;-2.60;99.90
12688;DHT22;6408;59.388;17.798;2022-12-10T16:14:29;-2.60;99.90
12688;DHT22;6408;59.388;17.798;2022-12-10T16:17:10;-2.60;99.90
12688;DHT22;6408;59.388;17.798;2022-12-10T16:19:51;-2.50;99.90
12688;DHT22;6408;59.388;17.798;2022-12-10T16:22:33;-2.60;99.90
12688;DHT22;6408;59.388;17.798;2022-12-10T16:25:05;-2.60;99.90
12688;DHT22;6408;59.388;17.798;2022-12-10T16:27:40;-2.60;99.90
12688;DHT22;6408;59.388;17.798;2022-12-10T16:30:30;-2.60;99.90
12688;DHT22;6408;59.388;17.798;2022-12-10T16:33:04;-2.70;99.90
12688;DHT22;6408;59.388;17.798;2022-12-10T16:35:36;-2.70;99.90
12688;DHT22;6408;59.388;17.798;2022-12-10T16:38:18;-2.80;99.90
12688;DHT22;6408;59.388;17.798;2022-12-10T16:41:00;-2.80;99.90
12688;DHT22;6408;59.388;17.798;2022-12-10T16:43:42;-2.90;99.90
12688;DHT22;6408;59.388;17.798;2022-12-10T16:46:13;-2.90;99.90
12688;DHT22;6408;59.388;17.798;2022-12-10T16:48:44;-2.80;99.90
12688;DHT22;6408;59.388;17.798;2022-12-10T16:51:29;-2.80;99.90
12688;DHT22;6408;59.388;17.798;2022-12-10T16:54:01;-2.80;99.90